createdAt,value
2019-05-22T00:00:18.896Z,35.45
2019-05-22T00:02:49.455Z,34.10
2019-05-22T00:05:38.463Z,34.95
2019-05-22T00:08:09.725Z,34.65
2019-05-22T00:10:41.261Z,33.55
2019-05-22T00:13:13.582Z,33.40
2019-05-22T00:15:43.086Z,37.58
2019-05-22T00:18:13.113Z,34.15
2019-05-22T00:20:43.795Z,36.58
2019-05-22T00:23:12.641Z,34.70
2019-05-22T00:25:43.667Z,34.30
2019-05-22T00:28:13.342Z,35.13
2019-05-22T00:30:45.451Z,37.40
2019-05-22T00:35:45.428Z,33.98
2019-05-22T00:38:15.305Z,32.90
2019-05-22T00:40:51.737Z,34.85
2019-05-22T00:43:22.186Z,33.75
2019-05-22T00:45:51.008Z,35.68
2019-05-22T00:48:22.906Z,32.85
2019-05-22T00:51:04.806Z,34.78
2019-05-22T00:53:45.057Z,34.20
2019-05-22T00:56:16.981Z,36.63
2019-05-22T00:58:58.332Z,37.42
2019-05-22T01:01:32.885Z,39.67
2019-05-22T01:04:03.395Z,35.38
2019-05-22T01:06:33.286Z,36.95
2019-05-22T01:09:04.739Z,36.13
2019-05-22T01:11:34.140Z,36.85
2019-05-22T01:14:04.562Z,35.63
2019-05-22T01:16:34.081Z,38.53
2019-05-22T01:19:05.933Z,36.88
2019-05-22T01:21:36.647Z,41.70
2019-05-22T01:24:07.117Z,35.90
2019-05-22T01:26:36.141Z,37.88
2019-05-22T01:29:05.983Z,34.92
2019-05-22T01:31:37.419Z,33.95
2019-05-22T01:34:09.588Z,33.05
2019-05-22T01:39:15.324Z,31.65
2019-05-22T01:41:48.583Z,32.83
2019-05-22T01:44:19.910Z,35.55
2019-05-22T01:46:50.570Z,35.17
2019-05-22T01:49:19.394Z,34.80
2019-05-22T01:51:48.380Z,38.48
2019-05-22T01:54:18.890Z,35.10
2019-05-22T01:56:48.950Z,34.03
2019-05-22T01:59:19.688Z,32.08
2019-05-22T02:01:49.364Z,32.73
2019-05-22T02:04:19.597Z,36.50
2019-05-22T02:06:48.750Z,34.23
2019-05-22T02:09:34.260Z,33.98
2019-05-22T02:12:16.912Z,31.05
2019-05-22T02:14:48.493Z,34.78
2019-05-22T02:17:20.425Z,33.35
2019-05-22T02:19:49.303Z,34.63
2019-05-22T02:22:19.340Z,37.50
2019-05-22T02:24:51.663Z,32.98
2019-05-22T02:27:21.370Z,33.38
2019-05-22T02:29:52.934Z,33.10
2019-05-22T02:32:23.524Z,33.10
2019-05-22T02:34:52.366Z,34.50
2019-05-22T02:37:22.233Z,34.67
2019-05-22T02:39:53.134Z,34.50
2019-05-22T02:42:31.089Z,32.03
2019-05-22T02:45:01.973Z,33.28
2019-05-22T02:47:32.034Z,35.60
2019-05-22T02:50:01.794Z,33.35
2019-05-22T02:52:30.770Z,33.20
2019-05-22T02:54:59.850Z,34.38
2019-05-22T02:57:30.851Z,34.55
2019-05-22T03:00:01.349Z,35.65
2019-05-22T03:02:32.739Z,36.88
2019-05-22T03:05:06.406Z,36.25
2019-05-22T03:07:36.135Z,36.65
2019-05-22T03:10:08.270Z,35.48
2019-05-22T03:15:11.524Z,35.95
2019-05-22T03:17:43.376Z,37.20
2019-05-22T03:20:19.017Z,36.63
2019-05-22T03:22:54.007Z,35.78
2019-05-22T03:25:24.341Z,41.48
2019-05-22T03:27:54.301Z,39.33
2019-05-22T03:30:30.347Z,43.17
2019-05-22T03:33:01.734Z,39.13
2019-05-22T03:35:33.599Z,41.08
2019-05-22T03:38:04.139Z,37.93
2019-05-22T03:40:34.993Z,37.60
2019-05-22T03:43:16.062Z,34.98
2019-05-22T03:45:45.028Z,36.13
2019-05-22T03:48:14.068Z,37.85
2019-05-22T03:50:43.845Z,37.55
2019-05-22T03:53:18.307Z,38.42
2019-05-22T03:55:48.870Z,40.10
2019-05-22T03:58:18.610Z,41.13
2019-05-22T04:00:50.904Z,41.92
2019-05-22T04:03:21.344Z,46.25
2019-05-22T04:05:52.783Z,42.93
2019-05-22T04:08:24.279Z,44.33
2019-05-22T04:10:59.691Z,42.78
2019-05-22T04:13:29.356Z,40.58
2019-05-22T04:15:59.817Z,40.90
2019-05-22T04:18:29.776Z,40.60
2019-05-22T04:21:00.717Z,42.60
2019-05-22T04:23:29.802Z,45.05
2019-05-22T04:26:00.305Z,38.78
2019-05-22T04:28:30.331Z,42.78
2019-05-22T04:31:00.894Z,41.75
2019-05-22T04:33:31.137Z,41.18
2019-05-22T04:36:02.229Z,42.53
2019-05-22T04:38:31.503Z,42.35
2019-05-22T04:41:01.708Z,39.23
2019-05-22T04:43:34.278Z,38.65
2019-05-22T04:46:05.529Z,40.75
2019-05-22T04:48:35.324Z,42.23
2019-05-22T04:51:10.072Z,40.63
2019-05-22T04:53:39.071Z,42.50
2019-05-22T04:56:07.907Z,42.38
2019-05-22T04:58:36.733Z,42.35
2019-05-22T05:01:05.815Z,39.90
2019-05-22T05:03:35.134Z,44.48
2019-05-22T05:06:06.967Z,46.05
2019-05-22T05:08:37.580Z,47.75
2019-05-22T05:11:06.553Z,43.70
2019-05-22T05:13:35.494Z,48.28
2019-05-22T05:16:05.466Z,41.23
2019-05-22T05:18:34.317Z,45.12
2019-05-22T05:21:03.172Z,39.25
2019-05-22T05:23:32.340Z,41.13
2019-05-22T05:26:01.201Z,42.40
2019-05-22T05:28:30.188Z,37.10
2019-05-22T05:31:00.537Z,44.53
2019-05-22T05:33:32.412Z,37.60
2019-05-22T05:36:02.139Z,39.88
2019-05-22T05:38:38.742Z,37.53
2019-05-22T05:41:07.810Z,41.63
2019-05-22T05:43:37.144Z,36.93
2019-05-22T05:46:07.006Z,36.75
2019-05-22T05:48:35.961Z,39.25
2019-05-22T05:51:08.608Z,35.45
2019-05-22T05:53:55.380Z,39.33
2019-05-22T05:56:27.151Z,37.48
2019-05-22T05:58:57.974Z,42.78
2019-05-22T06:01:32.469Z,37.58
2019-05-22T06:04:02.888Z,40.33
2019-05-22T06:06:35.123Z,39.42
2019-05-22T06:11:40.018Z,42.05
2019-05-22T06:14:11.647Z,40.33
2019-05-22T06:16:53.757Z,39.33
2019-05-22T06:19:24.007Z,40.10
2019-05-22T06:21:53.627Z,39.13
2019-05-22T06:24:34.945Z,40.45
2019-05-22T06:27:08.843Z,40.83
2019-05-22T06:29:43.444Z,37.08
2019-05-22T06:32:38.751Z,38.13
2019-05-22T06:35:12.118Z,39.63
2019-05-22T06:37:46.344Z,38.92
2019-05-22T06:40:17.737Z,115.62
2019-05-22T06:42:49.542Z,45.48
2019-05-22T06:45:18.668Z,35.55
2019-05-22T06:47:47.850Z,43.20
2019-05-22T06:50:16.697Z,40.88
2019-05-22T06:52:45.570Z,69.12
2019-05-22T06:55:14.420Z,51.15
2019-05-22T06:57:43.402Z,51.65
2019-05-22T07:00:15.366Z,50.23
2019-05-22T07:05:14.384Z,38.38
2019-05-22T07:07:43.320Z,42.80
2019-05-22T07:10:13.715Z,46.65
2019-05-22T07:12:43.740Z,40.35
2019-05-22T07:15:21.595Z,44.88
2019-05-22T07:17:52.195Z,41.83
2019-05-22T07:20:22.122Z,45.33
2019-05-22T07:22:51.941Z,47.98
2019-05-22T07:25:22.287Z,42.60
2019-05-22T07:27:51.702Z,43.85
2019-05-22T07:30:20.651Z,41.20
2019-05-22T07:32:49.681Z,43.13
2019-05-22T07:35:18.577Z,41.33
2019-05-22T07:37:49.403Z,43.23
2019-05-22T07:40:18.928Z,41.85
2019-05-22T07:42:50.025Z,44.38
2019-05-22T07:45:20.566Z,41.58
2019-05-22T07:47:50.119Z,44.58
2019-05-22T07:50:19.364Z,44.00
2019-05-22T07:52:50.736Z,42.27
2019-05-22T07:55:22.198Z,41.83
2019-05-22T07:58:03.798Z,49.18
2019-05-22T08:00:32.820Z,42.25
2019-05-22T08:03:02.702Z,40.30
2019-05-22T08:05:34.070Z,40.05
2019-05-22T08:08:04.298Z,38.33
2019-05-22T08:10:33.895Z,38.98
2019-05-22T08:13:02.827Z,40.33
2019-05-22T08:15:31.770Z,37.63
2019-05-22T08:18:01.930Z,39.95
2019-05-22T08:20:32.368Z,42.35
2019-05-22T08:23:02.386Z,42.62
2019-05-22T08:25:31.834Z,42.50
2019-05-22T08:28:00.886Z,40.35
2019-05-22T08:30:30.868Z,44.13
2019-05-22T08:33:03.481Z,42.75
2019-05-22T08:35:32.486Z,42.98
2019-05-22T08:38:04.674Z,38.25
2019-05-22T08:43:01.881Z,36.50
2019-05-22T08:45:30.983Z,36.70
2019-05-22T08:47:59.908Z,34.63
2019-05-22T08:50:31.231Z,35.38
2019-05-22T08:53:01.364Z,38.08
2019-05-22T08:55:32.594Z,39.60
2019-05-22T08:58:01.417Z,38.23
2019-05-22T09:00:32.186Z,32.90
2019-05-22T09:03:01.523Z,27.85
2019-05-22T09:05:30.556Z,29.37
2019-05-22T09:07:59.442Z,29.95
2019-05-22T09:10:28.574Z,26.40
2019-05-22T09:12:57.666Z,21.10
2019-05-22T09:15:26.659Z,16.50
2019-05-22T09:17:55.504Z,11.88
2019-05-22T09:20:24.949Z,14.00
2019-05-22T09:22:53.887Z,12.23
2019-05-22T09:25:23.458Z,13.10
2019-05-22T09:27:52.492Z,13.20
2019-05-22T09:30:22.092Z,11.97
2019-05-22T09:32:51.624Z,16.55
2019-05-22T09:35:20.471Z,23.05
2019-05-22T09:37:49.346Z,14.85
2019-05-22T09:40:18.373Z,12.23
2019-05-22T09:42:47.934Z,11.88
2019-05-22T09:45:16.882Z,13.80
2019-05-22T09:47:46.055Z,10.65
2019-05-22T09:50:15.673Z,9.50
2019-05-22T09:52:56.975Z,12.15
2019-05-22T09:55:18.366Z,13.88
2019-05-22T09:57:47.182Z,9.88
2019-05-22T10:00:17.056Z,8.80
2019-05-22T10:02:45.999Z,9.05
2019-05-22T10:05:16.150Z,14.20
2019-05-22T10:07:59.487Z,12.47
2019-05-22T10:10:17.970Z,14.78
2019-05-22T10:12:47.467Z,10.95
2019-05-22T10:15:17.150Z,13.08
2019-05-22T10:17:49.532Z,13.18
2019-05-22T10:20:19.799Z,12.47
2019-05-22T10:22:49.528Z,13.75
2019-05-22T10:25:18.701Z,12.03
2019-05-22T10:27:49.021Z,12.88
2019-05-22T10:30:20.951Z,13.08
2019-05-22T10:32:51.948Z,11.83
2019-05-22T10:35:26.756Z,12.33
2019-05-22T10:37:56.675Z,11.05
2019-05-22T10:40:26.016Z,13.72
2019-05-22T10:42:54.914Z,10.15
2019-05-22T10:45:23.741Z,10.25
2019-05-22T10:47:52.734Z,9.78
2019-05-22T10:50:21.860Z,13.45
2019-05-22T10:52:54.487Z,13.22
2019-05-22T10:55:22.721Z,8.85
2019-05-22T10:57:51.713Z,10.05
2019-05-22T11:00:23.263Z,10.75
2019-05-22T11:02:52.412Z,11.63
2019-05-22T11:05:22.769Z,12.93
2019-05-22T11:07:52.439Z,9.93
2019-05-22T11:10:24.458Z,10.60
2019-05-22T11:12:54.320Z,11.65
2019-05-22T11:15:23.874Z,10.58
2019-05-22T11:17:53.805Z,12.00
2019-05-22T11:20:24.048Z,13.90
2019-05-22T11:22:53.279Z,10.80
2019-05-22T11:25:22.459Z,12.78
2019-05-22T11:27:53.805Z,11.50
2019-05-22T11:30:23.813Z,11.88
2019-05-22T11:32:54.930Z,11.12
2019-05-22T11:35:24.682Z,14.05
2019-05-22T11:37:54.538Z,13.22
2019-05-22T11:40:24.078Z,16.73
2019-05-22T11:42:53.841Z,13.80
2019-05-22T11:45:23.008Z,17.52
2019-05-22T11:47:52.454Z,14.40
2019-05-22T11:50:24.019Z,13.72
2019-05-22T11:52:53.275Z,13.90
2019-05-22T11:55:22.368Z,14.47
2019-05-22T11:57:53.683Z,11.63
2019-05-22T12:00:23.655Z,14.45
2019-05-22T12:02:53.626Z,14.68
2019-05-22T12:05:24.670Z,14.18
2019-05-22T12:07:54.222Z,15.32
2019-05-22T12:10:25.669Z,13.58
2019-05-22T12:12:56.214Z,17.87
2019-05-22T12:15:28.069Z,15.63
2019-05-22T12:17:57.983Z,13.83
2019-05-22T12:20:29.373Z,12.65
2019-05-22T12:22:58.303Z,14.58
2019-05-22T12:25:27.979Z,15.60
2019-05-22T12:27:57.306Z,14.98
2019-05-22T12:30:28.781Z,14.43
2019-05-22T12:32:59.554Z,15.50
2019-05-22T12:35:30.140Z,17.60
2019-05-22T12:38:00.721Z,13.32
2019-05-22T12:40:33.907Z,15.83
2019-05-22T12:43:03.873Z,13.35
2019-05-22T12:45:33.613Z,12.63
2019-05-22T12:48:04.578Z,12.23
2019-05-22T12:50:33.902Z,15.18
2019-05-22T12:53:06.023Z,12.75
2019-05-22T12:58:03.475Z,12.90
2019-05-22T13:00:33.868Z,15.08
2019-05-22T13:03:03.715Z,13.53
2019-05-22T13:05:35.714Z,13.20
2019-05-22T13:10:34.140Z,16.27
2019-05-22T13:13:03.277Z,14.43
2019-05-22T13:15:35.489Z,18.02
2019-05-22T13:18:05.927Z,16.32
2019-05-22T13:20:43.298Z,15.55
2019-05-22T13:23:11.747Z,17.62
2019-05-22T13:25:42.535Z,14.83
2019-05-22T13:28:14.622Z,16.00
2019-05-22T13:33:18.045Z,12.37
2019-05-22T13:35:47.690Z,15.40
2019-05-22T13:38:18.588Z,15.88
2019-05-22T13:40:50.240Z,17.60
2019-05-22T13:43:19.648Z,13.00
2019-05-22T13:45:49.952Z,16.95
2019-05-22T13:48:18.813Z,15.70
2019-05-22T13:50:48.470Z,17.62
2019-05-22T13:53:18.311Z,15.83
2019-05-22T13:55:47.515Z,20.32
2019-05-22T13:58:19.638Z,15.03
2019-05-22T14:03:17.699Z,13.32
2019-05-22T14:05:48.136Z,14.40
2019-05-22T14:08:17.321Z,12.53
2019-05-22T14:10:49.751Z,12.82
2019-05-22T14:13:17.655Z,13.10
2019-05-22T14:15:54.639Z,19.82
2019-05-22T14:18:17.400Z,14.18
2019-05-22T14:20:46.774Z,13.13
2019-05-22T14:23:16.677Z,16.67
2019-05-22T14:25:47.328Z,15.72
2019-05-22T14:28:17.424Z,13.40
2019-05-22T14:30:46.348Z,11.63
2019-05-22T14:33:15.708Z,13.48
2019-05-22T14:35:48.823Z,14.47
2019-05-22T14:38:16.518Z,15.08
2019-05-22T14:40:45.648Z,16.23
2019-05-22T14:43:14.451Z,15.65
2019-05-22T14:45:43.635Z,11.57
2019-05-22T14:48:13.272Z,16.82
2019-05-22T14:50:42.223Z,14.98
2019-05-22T14:53:12.494Z,13.53
2019-05-22T14:55:41.540Z,11.53
2019-05-22T14:58:30.316Z,13.68
2019-05-22T15:00:59.162Z,13.83
2019-05-22T15:03:28.502Z,13.03
2019-05-22T15:05:57.690Z,16.57
2019-05-22T15:08:26.512Z,14.95
2019-05-22T15:10:57.175Z,13.25
2019-05-22T15:13:26.204Z,11.60
2019-05-22T15:15:55.048Z,12.88
2019-05-22T15:18:23.920Z,11.12
2019-05-22T15:21:01.250Z,13.40
2019-05-22T15:23:32.746Z,11.30
2019-05-22T15:26:02.400Z,15.40
2019-05-22T15:28:31.923Z,10.95
2019-05-22T15:31:01.892Z,10.05
2019-05-22T15:33:31.433Z,14.30
2019-05-22T15:36:00.521Z,12.03
2019-05-22T15:38:31.245Z,11.43
2019-05-22T15:41:00.583Z,11.53
2019-05-22T15:43:29.946Z,13.80
2019-05-22T15:46:01.336Z,10.85
2019-05-22T15:48:31.938Z,12.73
2019-05-22T15:51:07.006Z,12.03
2019-05-22T15:53:38.269Z,11.08
2019-05-22T15:56:09.613Z,15.00
2019-05-22T15:58:41.382Z,11.85
2019-05-22T16:01:13.115Z,11.53
2019-05-22T16:03:42.647Z,11.08
2019-05-22T16:06:13.847Z,14.40
2019-05-22T16:08:42.896Z,14.43
2019-05-22T16:11:14.868Z,15.38
2019-05-22T16:13:45.406Z,12.28
2019-05-22T16:16:16.856Z,14.03
2019-05-22T16:18:47.720Z,12.60
2019-05-22T16:21:18.047Z,12.35
2019-05-22T16:23:48.300Z,10.75
2019-05-22T16:26:18.478Z,16.02
2019-05-22T16:28:49.692Z,12.60
2019-05-22T16:31:20.623Z,11.87
2019-05-22T16:33:52.734Z,12.53
2019-05-22T16:38:51.309Z,13.98
2019-05-22T16:41:22.757Z,13.60
2019-05-22T16:43:51.865Z,13.75
2019-05-22T16:46:21.993Z,13.88
2019-05-22T16:48:52.124Z,14.05
2019-05-22T16:51:23.726Z,14.75
2019-05-22T16:53:54.902Z,11.73
2019-05-22T16:56:25.018Z,14.17
2019-05-22T16:58:55.570Z,12.90
2019-05-22T17:01:25.847Z,12.35
2019-05-22T17:03:58.532Z,12.93
2019-05-22T17:06:27.732Z,10.80
2019-05-22T17:08:57.970Z,13.45
2019-05-22T17:11:27.962Z,12.30
2019-05-22T17:14:01.033Z,17.25
2019-05-22T17:16:32.622Z,15.90
2019-05-22T17:19:02.951Z,9.68
2019-05-22T17:21:32.509Z,12.85
2019-05-22T17:24:03.758Z,14.58
2019-05-22T17:26:33.926Z,12.53
2019-05-22T17:29:02.940Z,13.40
2019-05-22T17:31:31.787Z,13.45
2019-05-22T17:34:00.825Z,13.85
2019-05-22T17:36:31.119Z,12.82
2019-05-22T17:39:01.322Z,14.28
2019-05-22T17:41:30.564Z,14.00
2019-05-22T17:44:01.864Z,13.13
2019-05-22T17:46:32.702Z,12.03
2019-05-22T17:49:02.560Z,11.30
2019-05-22T17:51:32.075Z,13.98
2019-05-22T17:54:01.047Z,12.88
2019-05-22T17:56:29.983Z,11.38
2019-05-22T17:58:58.914Z,11.88
2019-05-22T18:01:27.784Z,15.30
2019-05-22T18:03:57.437Z,11.30
2019-05-22T18:06:26.717Z,11.60
2019-05-22T18:08:55.948Z,11.78
2019-05-22T18:11:24.850Z,13.43
2019-05-22T18:14:00.912Z,10.25
2019-05-22T18:17:16.779Z,15.30
2019-05-22T18:19:45.626Z,11.97
2019-05-22T18:22:15.563Z,11.00
2019-05-22T18:24:46.005Z,10.43
2019-05-22T18:27:14.962Z,10.98
2019-05-22T18:29:43.846Z,9.53
2019-05-22T18:32:13.445Z,8.73
2019-05-22T18:34:42.328Z,13.45
2019-05-22T18:37:11.291Z,8.50
2019-05-22T18:39:40.955Z,10.32
2019-05-22T18:42:09.941Z,9.18
2019-05-22T18:44:38.867Z,8.95
2019-05-22T18:47:08.486Z,8.78
2019-05-22T18:49:37.468Z,10.58
2019-05-22T18:52:07.401Z,10.45
2019-05-22T18:54:36.286Z,12.70
2019-05-22T18:57:05.109Z,8.25
2019-05-22T18:59:33.988Z,8.68
2019-05-22T19:02:02.973Z,6.95
2019-05-22T19:04:32.815Z,12.25
2019-05-22T19:07:01.718Z,9.70
2019-05-22T19:09:30.527Z,7.30
2019-05-22T19:11:59.519Z,6.45
2019-05-22T19:14:28.392Z,12.43
2019-05-22T19:16:57.423Z,8.40
2019-05-22T19:19:28.411Z,9.90
2019-05-22T19:21:57.165Z,7.45
2019-05-22T19:24:26.034Z,9.25
2019-05-22T19:26:55.394Z,9.55
2019-05-22T19:29:24.497Z,7.72
2019-05-22T19:31:53.752Z,6.15
2019-05-22T19:34:23.298Z,11.28
2019-05-22T19:36:52.536Z,9.25
2019-05-22T19:39:21.636Z,6.35
2019-05-22T19:42:02.002Z,6.58
2019-05-22T19:44:22.642Z,5.58
2019-05-22T19:46:52.269Z,7.62
2019-05-22T19:49:21.700Z,9.25
2019-05-22T19:51:51.331Z,7.12
2019-05-22T19:54:20.177Z,7.55
2019-05-22T19:56:49.444Z,9.08
2019-05-22T19:59:19.190Z,7.62
2019-05-22T20:01:48.054Z,7.83
2019-05-22T20:04:18.095Z,9.95
2019-05-22T20:06:47.688Z,6.65
2019-05-22T20:09:17.363Z,10.23
2019-05-22T20:11:46.899Z,8.03
2019-05-22T20:14:16.178Z,8.53
2019-05-22T20:16:45.025Z,8.00
2019-05-22T20:19:14.026Z,7.75
2019-05-22T20:21:43.377Z,13.35
2019-05-22T20:24:12.488Z,6.22
2019-05-22T20:26:41.349Z,6.00
2019-05-22T20:29:10.281Z,10.13
2019-05-22T20:31:39.172Z,9.70
2019-05-22T20:34:08.466Z,9.83
2019-05-22T20:36:38.060Z,11.57
2019-05-22T20:39:09.535Z,12.28
2019-05-22T20:41:39.076Z,16.15
2019-05-22T20:44:08.811Z,14.47
2019-05-22T20:46:38.630Z,13.00
2019-05-22T20:49:10.365Z,15.98
2019-05-22T20:51:40.366Z,14.28
2019-05-22T20:54:10.022Z,18.17
2019-05-22T20:56:43.021Z,16.40
2019-05-22T20:59:13.046Z,15.95
2019-05-22T21:01:42.324Z,19.50
2019-05-22T21:04:13.899Z,18.37
2019-05-22T21:06:54.751Z,18.95
2019-05-22T21:09:25.014Z,18.55
2019-05-22T21:11:54.558Z,20.48
2019-05-22T21:14:23.932Z,18.12
2019-05-22T21:16:53.973Z,17.73
2019-05-22T21:19:23.835Z,18.45
2019-05-22T21:21:55.530Z,21.57
2019-05-22T21:24:25.507Z,18.57
2019-05-22T21:26:54.379Z,18.77
2019-05-22T21:29:24.616Z,18.82
2019-05-22T21:31:53.811Z,20.17
2019-05-22T21:34:23.542Z,22.90
2019-05-22T21:36:52.435Z,20.08
2019-05-22T21:39:22.878Z,20.60
2019-05-22T21:41:53.014Z,23.27
2019-05-22T21:44:22.375Z,24.65
2019-05-22T21:46:51.925Z,24.77
2019-05-22T21:49:21.228Z,21.02
2019-05-22T21:51:50.400Z,23.15
2019-05-22T21:54:20.442Z,23.35
2019-05-22T21:56:50.137Z,21.45
2019-05-22T21:59:18.983Z,25.25
2019-05-22T22:01:52.131Z,24.27
2019-05-22T22:04:22.871Z,24.63
2019-05-22T22:06:54.047Z,21.00
2019-05-22T22:09:23.905Z,22.42
2019-05-22T22:11:52.989Z,21.97
2019-05-22T22:14:24.350Z,20.25
2019-05-22T22:16:53.610Z,28.95
2019-05-22T22:19:24.186Z,22.45
2019-05-22T22:21:53.856Z,23.42
2019-05-22T22:24:23.439Z,23.77
2019-05-22T22:26:52.316Z,21.70
2019-05-22T22:29:21.356Z,25.48
2019-05-22T22:31:51.921Z,25.37
2019-05-22T22:34:26.622Z,27.00
2019-05-22T22:36:56.722Z,29.85
2019-05-22T22:39:25.959Z,28.20
2019-05-22T22:41:57.935Z,25.27
2019-05-22T22:44:27.901Z,29.65
2019-05-22T22:46:59.772Z,27.45
2019-05-22T22:49:29.352Z,26.30
2019-05-22T22:51:59.562Z,25.12
2019-05-22T22:54:29.458Z,29.95
2019-05-22T22:56:58.882Z,26.42
2019-05-22T22:59:27.907Z,26.93
2019-05-22T23:01:59.287Z,28.05
2019-05-22T23:04:30.012Z,28.00
2019-05-22T23:07:01.838Z,28.32
2019-05-22T23:09:31.950Z,26.80
2019-05-22T23:12:01.692Z,27.95
2019-05-22T23:14:32.941Z,27.02
2019-05-22T23:17:02.372Z,27.50
2019-05-22T23:19:34.429Z,26.23
2019-05-22T23:22:03.353Z,25.17
2019-05-22T23:24:34.247Z,24.07
2019-05-22T23:27:03.859Z,21.93
2019-05-22T23:29:33.696Z,24.25
2019-05-22T23:32:04.272Z,22.52
2019-05-22T23:34:33.208Z,19.12
2019-05-22T23:37:03.022Z,20.57
2019-05-22T23:39:34.076Z,23.00
2019-05-22T23:42:07.478Z,20.00
2019-05-22T23:44:37.829Z,17.05
2019-05-22T23:47:08.353Z,17.50
2019-05-22T23:49:39.828Z,16.70
2019-05-22T23:52:10.392Z,15.90
2019-05-22T23:54:41.854Z,16.70
2019-05-22T23:57:11.101Z,15.85
2019-05-22T23:59:41.956Z,17.10
